Time;durP1;ratioP1;P1;durP2;ratioP2;P2;SDS_P1;SDS_P2;PMS_P1;PMS_P2;Temp;Humidity;BMP_temperature;BMP_pressure;BME280_temperature;BME280_humidity;BME280_pressure;Samples;Min_cycle;Max_cycle;Signal;HPM_P1;HPM_P2
2023/05/19 00:01:28;;;;;;;10.98;6.80;;;;;;;;;;10292767;28;20072;-67
2023/05/19 00:06:28;;;;;;;12.93;7.30;;;;;;;;;;10307741;28;20529;-66
2023/05/19 00:11:26;;;;;;;11.15;7.18;;;;;;;;;;10291767;28;20072;-66
2023/05/19 00:16:25;;;;;;;12.82;7.57;;;;;;;;;;10296086;28;20068;-66
2023/05/19 00:21:25;;;;;;;9.27;7.47;;;;;;;;;;10299784;28;20075;-66
2023/05/19 00:26:23;;;;;;;10.20;7.40;;;;;;;;;;10296551;28;20072;-66
2023/05/19 00:31:30;;;;;;;11.52;7.55;;;;;;;;;;10297280;28;20069;-67
2023/05/19 00:36:30;;;;;;;15.43;7.70;;;;;;;;;;10299173;28;20071;-66
2023/05/19 00:41:28;;;;;;;9.75;7.10;;;;;;;;;;10297344;28;20087;-67
2023/05/19 00:46:26;;;;;;;11.88;8.73;;;;;;;;;;10296670;28;20458;-67
2023/05/19 00:51:26;;;;;;;9.05;8.07;;;;;;;;;;10292633;28;20080;-66
2023/05/19 00:56:26;;;;;;;10.90;8.20;;;;;;;;;;10298092;28;20082;-67
2023/05/19 01:01:25;;;;;;;9.32;7.78;;;;;;;;;;10298658;28;20068;-67
2023/05/19 01:06:24;;;;;;;11.02;8.40;;;;;;;;;;10297424;28;20083;-67
2023/05/19 01:11:22;;;;;;;10.98;7.82;;;;;;;;;;10296928;28;20072;-67
2023/05/19 01:16:25;;;;;;;10.68;8.65;;;;;;;;;;10302965;28;20045;-69
2023/05/19 01:21:50;;;;;;;8.30;7.47;;;;;;;;;;10298034;28;20084;-67
2023/05/19 01:26:58;;;;;;;10.05;8.00;;;;;;;;;;10271189;28;20099;-67
2023/05/19 01:31:59;;;;;;;11.10;8.68;;;;;;;;;;10301664;28;20069;-67
2023/05/19 01:36:59;;;;;;;8.60;7.05;;;;;;;;;;10308687;28;20469;-67
2023/05/19 01:41:58;;;;;;;13.85;8.25;;;;;;;;;;10305106;28;20068;-66
2023/05/19 01:47:00;;;;;;;9.88;7.85;;;;;;;;;;10300989;28;20072;-67
2023/05/19 01:51:58;;;;;;;11.13;8.05;;;;;;;;;;10304838;28;20087;-66
2023/05/19 01:57:00;;;;;;;10.93;9.32;;;;;;;;;;10303719;28;20142;-67
2023/05/19 02:02:02;;;;;;;14.65;8.88;;;;;;;;;;10301859;28;20088;-67
2023/05/19 02:07:03;;;;;;;9.48;8.27;;;;;;;;;;10303035;28;20068;-66
2023/05/19 02:12:09;;;;;;;10.80;8.23;;;;;;;;;;10306528;28;20087;-67
2023/05/19 02:17:11;;;;;;;11.50;8.95;;;;;;;;;;10299041;28;20079;-68
2023/05/19 02:22:09;;;;;;;15.55;8.60;;;;;;;;;;10306507;28;20072;-67
2023/05/19 02:27:08;;;;;;;15.65;9.07;;;;;;;;;;10301707;28;20064;-67
2023/05/19 02:32:06;;;;;;;11.93;8.38;;;;;;;;;;10302434;28;20503;-68
2023/05/19 02:37:07;;;;;;;15.45;8.30;;;;;;;;;;10301493;28;20524;-67
2023/05/19 02:42:05;;;;;;;15.48;9.15;;;;;;;;;;10301854;28;20079;-67
2023/05/19 02:47:04;;;;;;;19.85;10.82;;;;;;;;;;10303970;28;20068;-67
2023/05/19 02:52:02;;;;;;;11.15;8.75;;;;;;;;;;10300017;28;20076;-66
2023/05/19 02:57:02;;;;;;;22.33;9.10;;;;;;;;;;10303137;28;20080;-66
2023/05/19 03:02:01;;;;;;;20.10;9.98;;;;;;;;;;10305221;28;20072;-66
2023/05/19 03:07:00;;;;;;;12.05;8.73;;;;;;;;;;10299396;28;20076;-67
2023/05/19 03:12:03;;;;;;;16.05;9.40;;;;;;;;;;10300445;28;20455;-66
2023/05/19 03:17:03;;;;;;;11.77;9.25;;;;;;;;;;10301258;28;20434;-66
2023/05/19 03:22:01;;;;;;;10.50;9.05;;;;;;;;;;10300325;28;20084;-67
2023/05/19 03:26:59;;;;;;;9.75;8.63;;;;;;;;;;10303842;28;20072;-66
2023/05/19 03:31:58;;;;;;;10.20;9.05;;;;;;;;;;10294279;28;20069;-66
2023/05/19 03:36:58;;;;;;;13.68;10.18;;;;;;;;;;10300145;28;20049;-66
2023/05/19 03:41:56;;;;;;;15.15;10.55;;;;;;;;;;10297903;28;20073;-66
2023/05/19 03:46:55;;;;;;;12.57;9.48;;;;;;;;;;10294756;28;20076;-66
2023/05/19 03:52:13;;;;;;;11.80;9.27;;;;;;;;;;10306850;28;20068;-66
2023/05/19 03:57:34;;;;;;;11.63;9.55;;;;;;;;;;10295962;28;20481;-66
2023/05/19 04:02:32;;;;;;;13.90;10.05;;;;;;;;;;10291410;28;20080;-66
2023/05/19 04:07:32;;;;;;;13.82;8.40;;;;;;;;;;10295372;28;20076;-67
2023/05/19 04:12:30;;;;;;;10.50;9.40;;;;;;;;;;10295578;28;20070;-67
2023/05/19 04:17:29;;;;;;;12.45;8.57;;;;;;;;;;10296727;28;20064;-68
2023/05/19 04:22:27;;;;;;;10.95;8.68;;;;;;;;;;10295361;28;20541;-68
2023/05/19 04:27:28;;;;;;;14.65;9.73;;;;;;;;;;10299623;28;20075;-67
2023/05/19 04:32:28;;;;;;;10.00;8.93;;;;;;;;;;10299310;28;20068;-67
2023/05/19 04:37:28;;;;;;;12.32;9.23;;;;;;;;;;10297996;28;20076;-67
2023/05/19 04:42:31;;;;;;;11.20;8.80;;;;;;;;;;10303252;28;20522;-66
2023/05/19 04:47:35;;;;;;;14.88;10.65;;;;;;;;;;10306366;28;20572;-66
2023/05/19 04:52:35;;;;;;;14.38;10.07;;;;;;;;;;10292885;28;20075;-66
2023/05/19 04:57:36;;;;;;;39.42;29.77;;;;;;;;;;10303433;28;20085;-69
2023/05/19 05:02:34;;;;;;;14.95;11.27;;;;;;;;;;10300017;28;20553;-68
2023/05/19 05:07:33;;;;;;;18.10;12.02;;;;;;;;;;10291085;28;20512;-68
2023/05/19 05:12:32;;;;;;;19.33;13.57;;;;;;;;;;10295264;28;20064;-69
2023/05/19 05:17:32;;;;;;;22.40;10.52;;;;;;;;;;10302988;28;20079;-68
2023/05/19 05:22:32;;;;;;;15.20;11.30;;;;;;;;;;10300686;28;20091;-69
2023/05/19 05:27:31;;;;;;;17.75;10.50;;;;;;;;;;10306884;28;20079;-65
2023/05/19 05:32:29;;;;;;;13.90;10.93;;;;;;;;;;10305409;28;20080;-67
2023/05/19 05:37:30;;;;;;;16.48;11.00;;;;;;;;;;10301568;28;20553;-67
2023/05/19 05:42:30;;;;;;;13.75;10.63;;;;;;;;;;10307888;28;20072;-67
2023/05/19 05:47:28;;;;;;;16.85;10.38;;;;;;;;;;10298926;28;20075;-67
2023/05/19 05:52:29;;;;;;;14.15;10.25;;;;;;;;;;10299480;28;20823;-67
2023/05/19 05:57:33;;;;;;;18.42;11.13;;;;;;;;;;10299944;28;20081;-66
2023/05/19 06:02:32;;;;;;;18.80;10.95;;;;;;;;;;10300427;28;20087;-67
2023/05/19 06:07:31;;;;;;;12.82;11.00;;;;;;;;;;10304842;28;20072;-66
2023/05/19 06:12:30;;;;;;;18.95;11.68;;;;;;;;;;10292143;28;20064;-67
2023/05/19 06:17:30;;;;;;;14.52;10.73;;;;;;;;;;10295402;28;20079;-67
2023/05/19 06:22:28;;;;;;;16.35;12.60;;;;;;;;;;10295583;28;20072;-67
2023/05/19 06:27:27;;;;;;;15.82;11.52;;;;;;;;;;10297254;28;20079;-67
2023/05/19 06:32:28;;;;;;;17.55;14.18;;;;;;;;;;10294994;28;20495;-67
2023/05/19 06:37:29;;;;;;;15.97;13.47;;;;;;;;;;10294492;28;20073;-67
2023/05/19 06:42:27;;;;;;;17.02;12.90;;;;;;;;;;10298211;28;20064;-67
2023/05/19 06:47:40;;;;;;;14.50;12.98;;;;;;;;;;10294292;28;20099;-67
2023/05/19 06:52:39;;;;;;;16.60;13.40;;;;;;;;;;10297490;28;20845;-67
2023/05/19 06:57:37;;;;;;;17.90;14.43;;;;;;;;;;10298847;28;20060;-67
2023/05/19 07:02:36;;;;;;;17.92;15.60;;;;;;;;;;10295543;28;20591;-67
2023/05/19 07:07:36;;;;;;;16.00;14.05;;;;;;;;;;10300091;28;20083;-66
2023/05/19 07:12:38;;;;;;;17.77;14.35;;;;;;;;;;10300508;28;20089;-67
2023/05/19 07:17:37;;;;;;;20.45;14.05;;;;;;;;;;10314000;28;20048;-67
2023/05/19 07:22:38;;;;;;;17.70;15.88;;;;;;;;;;10299148;28;20072;-66
2023/05/19 07:27:37;;;;;;;20.45;14.43;;;;;;;;;;10298929;28;20065;-67
2023/05/19 07:32:35;;;;;;;19.90;15.63;;;;;;;;;;10300645;28;20087;-67
2023/05/19 07:37:33;;;;;;;24.33;16.08;;;;;;;;;;10300994;28;20078;-67
2023/05/19 07:42:33;;;;;;;21.50;15.35;;;;;;;;;;10297157;28;20084;-67
2023/05/19 07:47:31;;;;;;;18.25;14.25;;;;;;;;;;10290194;28;20190;-67
2023/05/19 07:52:30;;;;;;;16.45;14.73;;;;;;;;;;10298512;28;20064;-67
2023/05/19 07:57:28;;;;;;;19.50;15.07;;;;;;;;;;10298645;28;20064;-67
2023/05/19 08:02:27;;;;;;;23.38;16.13;;;;;;;;;;10298827;28;20688;-67
2023/05/19 08:07:26;;;;;;;21.90;15.95;;;;;;;;;;10297922;28;20071;-67
2023/05/19 08:12:24;;;;;;;21.50;14.27;;;;;;;;;;10296419;28;20087;-67
2023/05/19 08:17:22;;;;;;;18.00;16.08;;;;;;;;;;10298037;28;20087;-65
2023/05/19 08:22:22;;;;;;;18.80;12.63;;;;;;;;;;10297358;28;20073;-67
2023/05/19 08:27:20;;;;;;;19.77;13.82;;;;;;;;;;10298218;28;20072;-67
2023/05/19 08:32:18;;;;;;;19.38;13.30;;;;;;;;;;10294297;28;20071;-67
2023/05/19 08:37:16;;;;;;;22.52;14.30;;;;;;;;;;10298981;28;20080;-66
2023/05/19 08:42:16;;;;;;;13.98;12.52;;;;;;;;;;10298297;28;20064;-67
2023/05/19 08:47:15;;;;;;;15.45;12.70;;;;;;;;;;10296372;28;20072;-67
2023/05/19 08:52:18;;;;;;;15.10;11.95;;;;;;;;;;10296496;28;20067;-67
2023/05/19 08:57:18;;;;;;;17.85;13.27;;;;;;;;;;10298023;28;20076;-68
2023/05/19 09:02:17;;;;;;;13.13;11.80;;;;;;;;;;10296435;28;20537;-68
2023/05/19 09:07:15;;;;;;;16.73;13.75;;;;;;;;;;10298227;28;20071;-68
2023/05/19 09:12:14;;;;;;;13.23;11.75;;;;;;;;;;10292951;28;20064;-67
2023/05/19 09:17:14;;;;;;;12.27;11.00;;;;;;;;;;10294917;28;20072;-67
2023/05/19 09:22:14;;;;;;;11.07;10.00;;;;;;;;;;10297852;28;20112;-66
2023/05/19 09:27:14;;;;;;;13.20;10.23;;;;;;;;;;10299155;28;20071;-65
2023/05/19 09:32:23;;;;;;;14.00;10.45;;;;;;;;;;10297675;28;20095;-67
2023/05/19 09:37:22;;;;;;;16.70;12.75;;;;;;;;;;10293674;28;20075;-67
2023/05/19 09:42:24;;;;;;;12.88;10.52;;;;;;;;;;10295629;28;20075;-67
2023/05/19 09:47:24;;;;;;;12.32;11.02;;;;;;;;;;10302482;28;20113;-67
2023/05/19 09:52:22;;;;;;;16.00;10.95;;;;;;;;;;10301562;28;20068;-67
2023/05/19 09:57:25;;;;;;;15.98;11.43;;;;;;;;;;10301884;28;20081;-67
2023/05/19 10:02:25;;;;;;;13.82;11.82;;;;;;;;;;10302680;28;20086;-68
2023/05/19 10:07:24;;;;;;;12.00;10.40;;;;;;;;;;10299345;28;20068;-69
2023/05/19 10:12:22;;;;;;;12.70;11.00;;;;;;;;;;10302538;28;20072;-68
2023/05/19 10:17:21;;;;;;;17.90;10.25;;;;;;;;;;10301450;28;20095;-68
2023/05/19 10:22:21;;;;;;;14.70;10.55;;;;;;;;;;10298181;28;20077;-68
2023/05/19 10:27:19;;;;;;;12.57;10.90;;;;;;;;;;10297084;28;20446;-68
2023/05/19 10:32:19;;;;;;;14.85;10.73;;;;;;;;;;10300496;28;20075;-69
2023/05/19 10:37:21;;;;;;;11.85;10.13;;;;;;;;;;10299854;28;20079;-68
2023/05/19 10:42:29;;;;;;;13.98;10.55;;;;;;;;;;10299132;28;20520;-67
2023/05/19 10:47:27;;;;;;;11.98;9.20;;;;;;;;;;10299342;28;20832;-68
2023/05/19 10:52:28;;;;;;;12.25;9.57;;;;;;;;;;10293259;28;20068;-68
2023/05/19 10:57:30;;;;;;;13.05;9.45;;;;;;;;;;10298801;28;20476;-68
2023/05/19 11:02:46;;;;;;;9.85;8.85;;;;;;;;;;10298224;28;20502;-68
2023/05/19 11:07:54;;;;;;;12.75;10.73;;;;;;;;;;10296904;28;20482;-66
2023/05/19 11:12:56;;;;;;;13.10;10.07;;;;;;;;;;10298080;28;20064;-67
2023/05/19 11:17:55;;;;;;;17.92;10.20;;;;;;;;;;10299001;28;20075;-67
2023/05/19 11:23:07;;;;;;;14.18;10.70;;;;;;;;;;10299168;28;20745;-67
2023/05/19 11:28:07;;;;;;;10.90;9.73;;;;;;;;;;10294825;28;20079;-67
2023/05/19 11:33:05;;;;;;;11.15;8.45;;;;;;;;;;10298005;28;20056;-68
2023/05/19 11:38:05;;;;;;;10.65;8.18;;;;;;;;;;10298442;28;20044;-68
2023/05/19 11:43:03;;;;;;;12.20;8.48;;;;;;;;;;10295586;28;20079;-67
2023/05/19 11:48:04;;;;;;;12.18;8.43;;;;;;;;;;10293015;28;20056;-67
2023/05/19 11:53:02;;;;;;;10.85;8.32;;;;;;;;;;10294084;28;20069;-67
2023/05/19 11:58:02;;;;;;;9.48;7.78;;;;;;;;;;10296262;28;20083;-67
2023/05/19 12:03:04;;;;;;;9.75;7.95;;;;;;;;;;10296755;28;20068;-67
2023/05/19 12:08:03;;;;;;;11.20;7.15;;;;;;;;;;10296807;28;20070;-67
2023/05/19 12:13:01;;;;;;;9.30;7.63;;;;;;;;;;10296306;28;20075;-68
2023/05/19 12:18:00;;;;;;;9.95;8.13;;;;;;;;;;10294895;28;20067;-69
2023/05/19 12:23:00;;;;;;;11.75;8.95;;;;;;;;;;10296642;28;20493;-68
2023/05/19 12:27:59;;;;;;;8.75;6.55;;;;;;;;;;10294779;28;20068;-67
2023/05/19 12:32:57;;;;;;;9.93;6.35;;;;;;;;;;10296778;28;20489;-67
2023/05/19 12:37:56;;;;;;;8.65;6.05;;;;;;;;;;10292303;28;20528;-66
2023/05/19 12:42:58;;;;;;;9.88;6.55;;;;;;;;;;10295606;28;20060;-65
2023/05/19 12:47:56;;;;;;;9.18;7.22;;;;;;;;;;10298627;28;20098;-66
2023/05/19 12:52:55;;;;;;;8.38;6.10;;;;;;;;;;10314179;28;20076;-69
2023/05/19 12:57:55;;;;;;;8.77;6.80;;;;;;;;;;10294955;28;20438;-69
2023/05/19 13:02:57;;;;;;;7.22;6.10;;;;;;;;;;10291994;28;20072;-70
2023/05/19 13:07:56;;;;;;;9.80;6.35;;;;;;;;;;10293415;28;20466;-68
2023/05/19 13:12:55;;;;;;;8.82;6.35;;;;;;;;;;10287537;28;20068;-65
2023/05/19 13:17:54;;;;;;;8.43;6.00;;;;;;;;;;10304931;28;20094;-67
2023/05/19 13:22:53;;;;;;;10.45;7.22;;;;;;;;;;10307355;28;20072;-65
2023/05/19 13:27:52;;;;;;;15.02;8.90;;;;;;;;;;10302306;28;20064;-68
2023/05/19 13:32:51;;;;;;;10.43;6.20;;;;;;;;;;10300037;28;20068;-67
2023/05/19 13:37:49;;;;;;;9.75;6.68;;;;;;;;;;10306255;28;20474;-64
2023/05/19 13:42:49;;;;;;;10.30;7.47;;;;;;;;;;10302362;28;20551;-64
2023/05/19 13:47:48;;;;;;;8.15;6.32;;;;;;;;;;10298424;28;20068;-65
2023/05/19 13:52:46;;;;;;;13.88;6.90;;;;;;;;;;10303975;28;20069;-68
2023/05/19 13:57:44;;;;;;;9.57;7.80;;;;;;;;;;10299765;28;20512;-67
2023/05/19 14:02:44;;;;;;;11.73;6.72;;;;;;;;;;10307543;28;20514;-70
2023/05/19 14:07:43;;;;;;;13.98;6.93;;;;;;;;;;10298124;28;20067;-69
2023/05/19 14:12:42;;;;;;;13.65;6.45;;;;;;;;;;10297688;28;20064;-69
2023/05/19 14:18:01;;;;;;;9.40;6.35;;;;;;;;;;10299383;28;20067;-68
2023/05/19 14:23:05;;;;;;;11.20;6.70;;;;;;;;;;10296339;28;20073;-68
2023/05/19 14:28:03;;;;;;;6.18;5.38;;;;;;;;;;10297081;28;20517;-67
2023/05/19 14:33:03;;;;;;;8.88;5.68;;;;;;;;;;10296823;28;20061;-68
2023/05/19 14:38:02;;;;;;;9.18;6.60;;;;;;;;;;10292353;28;20072;-68
2023/05/19 14:43:00;;;;;;;8.57;6.95;;;;;;;;;;10293481;28;20064;-68
2023/05/19 14:47:58;;;;;;;8.07;6.88;;;;;;;;;;10296805;28;20072;-67
2023/05/19 14:52:58;;;;;;;19.65;8.02;;;;;;;;;;10299067;28;20060;-68
2023/05/19 14:57:56;;;;;;;7.78;6.97;;;;;;;;;;10299610;28;20071;-68
2023/05/19 15:02:54;;;;;;;7.22;5.75;;;;;;;;;;10299754;28;20073;-68
2023/05/19 15:07:53;;;;;;;6.30;5.70;;;;;;;;;;10296408;28;20029;-68
2023/05/19 15:12:52;;;;;;;7.55;6.70;;;;;;;;;;10299150;28;20076;-68
2023/05/19 15:17:50;;;;;;;6.40;5.78;;;;;;;;;;10298177;28;20072;-68
2023/05/19 15:22:49;;;;;;;8.77;6.50;;;;;;;;;;10299810;28;20084;-68
2023/05/19 15:27:47;;;;;;;11.00;8.10;;;;;;;;;;10297113;28;20076;-68
2023/05/19 15:32:47;;;;;;;11.15;7.03;;;;;;;;;;10298660;28;20068;-68
2023/05/19 15:37:45;;;;;;;10.15;8.15;;;;;;;;;;10297242;28;20102;-68
2023/05/19 15:42:43;;;;;;;11.55;8.48;;;;;;;;;;10296741;28;20064;-67
2023/05/19 15:47:41;;;;;;;11.23;9.05;;;;;;;;;;10297108;28;20076;-67
2023/05/19 15:52:41;;;;;;;24.27;5.63;;;;;;;;;;10296428;28;20537;-67
2023/05/19 15:57:39;;;;;;;8.85;6.20;;;;;;;;;;10296955;28;20075;-67
2023/05/19 16:02:37;;;;;;;8.35;6.68;;;;;;;;;;10297835;28;20075;-68
2023/05/19 16:07:36;;;;;;;11.50;8.07;;;;;;;;;;10296377;28;20061;-67
2023/05/19 16:12:36;;;;;;;10.80;6.50;;;;;;;;;;10293519;28;20080;-68
2023/05/19 16:17:34;;;;;;;16.45;7.07;;;;;;;;;;10293506;28;20071;-68
2023/05/19 16:22:32;;;;;;;11.88;6.40;;;;;;;;;;10296242;28;20087;-68
2023/05/19 16:27:30;;;;;;;8.68;5.78;;;;;;;;;;10295536;28;20071;-69
2023/05/19 16:32:30;;;;;;;6.32;5.72;;;;;;;;;;10297413;28;20072;-69
2023/05/19 16:37:28;;;;;;;12.45;6.75;;;;;;;;;;10293884;28;20072;-69
2023/05/19 16:42:27;;;;;;;8.65;6.70;;;;;;;;;;10295663;28;20071;-66
2023/05/19 16:47:28;;;;;;;6.47;5.25;;;;;;;;;;10294241;28;20088;-68
2023/05/19 16:52:27;;;;;;;7.88;5.95;;;;;;;;;;10300887;28;20088;-68
2023/05/19 16:57:26;;;;;;;9.30;7.10;;;;;;;;;;10303741;28;20045;-67
2023/05/19 17:02:24;;;;;;;6.85;6.03;;;;;;;;;;10304696;28;20067;-67
2023/05/19 17:07:26;;;;;;;11.00;6.07;;;;;;;;;;10302688;28;20470;-67
2023/05/19 17:12:26;;;;;;;13.15;6.13;;;;;;;;;;10304067;28;20071;-67
2023/05/19 17:17:24;;;;;;;10.38;6.45;;;;;;;;;;10302601;28;20087;-68
2023/05/19 17:22:22;;;;;;;7.75;6.00;;;;;;;;;;10303137;28;20076;-68
2023/05/19 17:27:21;;;;;;;8.88;5.97;;;;;;;;;;10302275;28;20079;-68
2023/05/19 17:32:24;;;;;;;6.65;5.95;;;;;;;;;;10300033;28;20071;-68
2023/05/19 17:37:24;;;;;;;8.88;6.53;;;;;;;;;;10301755;28;20686;-68
2023/05/19 17:42:22;;;;;;;11.38;6.20;;;;;;;;;;10301281;28;20119;-68
2023/05/19 17:47:22;;;;;;;10.43;6.43;;;;;;;;;;10302500;28;20075;-68
2023/05/19 17:52:21;;;;;;;8.68;6.10;;;;;;;;;;10295354;28;20069;-69
2023/05/19 17:57:20;;;;;;;7.60;6.40;;;;;;;;;;10299982;28;20853;-67
2023/05/19 18:02:18;;;;;;;7.35;5.97;;;;;;;;;;10301259;28;20088;-69
2023/05/19 18:07:19;;;;;;;10.18;6.30;;;;;;;;;;10299892;28;20510;-67
2023/05/19 18:12:20;;;;;;;10.10;5.57;;;;;;;;;;10304274;28;20551;-66
2023/05/19 18:17:18;;;;;;;8.32;6.45;;;;;;;;;;10304181;28;20072;-67
2023/05/19 18:22:17;;;;;;;12.30;7.97;;;;;;;;;;10302475;28;20076;-68
2023/05/19 18:27:17;;;;;;;15.05;7.82;;;;;;;;;;10306039;28;20521;-68
2023/05/19 18:32:16;;;;;;;10.00;6.30;;;;;;;;;;10291638;28;20064;-68
2023/05/19 18:37:19;;;;;;;28.70;18.90;;;;;;;;;;10294876;28;20060;-68
2023/05/19 18:42:19;;;;;;;10.05;7.78;;;;;;;;;;10289987;28;20075;-67
2023/05/19 18:47:18;;;;;;;9.27;6.28;;;;;;;;;;10289534;28;20075;-68
2023/05/19 18:52:17;;;;;;;14.02;6.88;;;;;;;;;;10291386;28;20078;-67
2023/05/19 18:57:16;;;;;;;8.60;6.38;;;;;;;;;;10297233;28;20064;-67
2023/05/19 19:02:15;;;;;;;9.73;6.50;;;;;;;;;;10293392;28;20040;-67
2023/05/19 19:07:13;;;;;;;7.65;5.95;;;;;;;;;;10294181;28;20076;-67
2023/05/19 19:12:11;;;;;;;7.43;5.68;;;;;;;;;;10299019;28;20514;-67
2023/05/19 19:17:11;;;;;;;4.95;4.50;;;;;;;;;;10299183;28;20079;-67
2023/05/19 19:22:11;;;;;;;6.75;5.35;;;;;;;;;;10298190;28;20076;-67
2023/05/19 19:27:09;;;;;;;8.32;7.50;;;;;;;;;;10297609;28;20079;-67
2023/05/19 19:32:07;;;;;;;11.98;7.50;;;;;;;;;;10295046;28;20079;-67
2023/05/19 19:37:06;;;;;;;14.38;12.55;;;;;;;;;;10296835;28;20091;-67
2023/05/19 19:42:05;;;;;;;7.47;6.68;;;;;;;;;;10308933;28;20076;-68
2023/05/19 19:47:04;;;;;;;9.07;7.03;;;;;;;;;;10297908;28;20491;-67
2023/05/19 19:52:03;;;;;;;7.93;6.78;;;;;;;;;;10293794;28;20060;-67
2023/05/19 19:57:01;;;;;;;8.95;7.70;;;;;;;;;;10293464;28;20404;-67
2023/05/19 20:02:01;;;;;;;11.68;8.02;;;;;;;;;;10293644;28;20072;-67
2023/05/19 20:06:59;;;;;;;11.43;7.18;;;;;;;;;;10289821;28;20064;-68
2023/05/19 20:11:57;;;;;;;7.55;6.57;;;;;;;;;;10289791;28;20068;-68
2023/05/19 20:16:55;;;;;;;8.65;7.80;;;;;;;;;;10289884;28;20073;-68
2023/05/19 20:21:59;;;;;;;12.25;8.40;;;;;;;;;;10293863;28;20442;-67
2023/05/19 20:26:57;;;;;;;9.77;8.88;;;;;;;;;;10291286;28;20065;-68
2023/05/19 20:31:55;;;;;;;10.75;8.20;;;;;;;;;;10296350;28;20079;-66
2023/05/19 20:36:54;;;;;;;11.90;8.10;;;;;;;;;;10298383;28;20462;-67
2023/05/19 20:41:54;;;;;;;10.57;9.55;;;;;;;;;;10299932;28;20072;-67
2023/05/19 20:46:53;;;;;;;11.15;9.63;;;;;;;;;;10302047;28;20524;-67
2023/05/19 20:51:51;;;;;;;12.63;8.70;;;;;;;;;;10295906;28;20076;-67
2023/05/19 20:56:50;;;;;;;14.13;11.82;;;;;;;;;;10296434;28;20072;-67
2023/05/19 21:01:50;;;;;;;10.82;8.40;;;;;;;;;;10299324;28;20068;-66
2023/05/19 21:06:48;;;;;;;12.77;8.43;;;;;;;;;;10296660;28;20076;-67
2023/05/19 21:11:47;;;;;;;10.30;7.53;;;;;;;;;;10298780;28;20072;-65
2023/05/19 21:16:50;;;;;;;8.77;7.88;;;;;;;;;;10295426;28;20478;-68
2023/05/19 21:21:48;;;;;;;7.93;7.13;;;;;;;;;;10295430;28;20473;-67
2023/05/19 21:26:48;;;;;;;11.35;7.88;;;;;;;;;;10296565;28;20109;-67
2023/05/19 21:31:46;;;;;;;8.40;7.60;;;;;;;;;;10291644;28;20075;-67
2023/05/19 21:36:45;;;;;;;9.93;9.02;;;;;;;;;;10301683;28;20084;-67
2023/05/19 21:41:46;;;;;;;13.63;9.73;;;;;;;;;;10300585;28;20072;-67
2023/05/19 21:46:44;;;;;;;9.82;7.65;;;;;;;;;;10302202;28;20075;-67
2023/05/19 21:51:42;;;;;;;9.13;8.18;;;;;;;;;;10301108;28;20078;-68
2023/05/19 21:56:42;;;;;;;10.00;7.38;;;;;;;;;;10302324;28;20072;-67
2023/05/19 22:01:41;;;;;;;10.27;7.53;;;;;;;;;;10303496;28;20072;-67
2023/05/19 22:06:39;;;;;;;7.78;6.78;;;;;;;;;;10299729;28;20509;-68
2023/05/19 22:11:37;;;;;;;8.30;7.13;;;;;;;;;;10301285;28;20072;-67
2023/05/19 22:16:37;;;;;;;7.85;7.15;;;;;;;;;;10298682;28;20072;-67
2023/05/19 22:21:35;;;;;;;9.50;7.28;;;;;;;;;;10304605;28;20082;-68
2023/05/19 22:26:34;;;;;;;9.05;6.70;;;;;;;;;;10301020;28;20461;-67
2023/05/19 22:31:32;;;;;;;11.85;7.45;;;;;;;;;;10300824;28;20075;-68
2023/05/19 22:36:32;;;;;;;10.82;7.05;;;;;;;;;;10306113;28;20041;-67
2023/05/19 22:41:30;;;;;;;9.02;7.28;;;;;;;;;;10299652;28;20434;-68
2023/05/19 22:46:28;;;;;;;11.13;7.10;;;;;;;;;;10299828;28;20076;-68
2023/05/19 22:51:27;;;;;;;10.45;7.80;;;;;;;;;;10300427;28;20090;-67
2023/05/19 22:56:26;;;;;;;7.78;7.07;;;;;;;;;;10299661;28;20072;-67
2023/05/19 23:01:25;;;;;;;9.55;8.00;;;;;;;;;;10299790;28;20071;-67
2023/05/19 23:06:23;;;;;;;10.02;8.75;;;;;;;;;;10298387;28;20087;-67
2023/05/19 23:11:21;;;;;;;9.73;8.40;;;;;;;;;;10299150;28;20064;-67
2023/05/19 23:16:21;;;;;;;11.05;9.70;;;;;;;;;;10297564;28;20068;-67
2023/05/19 23:21:19;;;;;;;11.10;8.30;;;;;;;;;;10299023;28;20080;-67
2023/05/19 23:26:17;;;;;;;11.45;8.93;;;;;;;;;;10297405;28;20872;-67
2023/05/19 23:31:15;;;;;;;11.38;9.23;;;;;;;;;;10296749;28;20510;-67
2023/05/19 23:36:16;;;;;;;12.95;9.35;;;;;;;;;;10297539;28;20052;-67
2023/05/19 23:41:14;;;;;;;12.98;9.80;;;;;;;;;;10297257;28;20068;-67
2023/05/19 23:46:12;;;;;;;14.68;9.60;;;;;;;;;;10297053;28;20075;-67
2023/05/19 23:51:11;;;;;;;17.73;9.40;;;;;;;;;;10297368;28;20064;-67
2023/05/19 23:56:10;;;;;;;10.98;8.88;;;;;;;;;;10297934;28;20147;-67
